sensor_id;sensor_type;location;lat;lon;timestamp;P1;durP1;ratioP1;P2;durP2;ratioP2
6693;SDS011;3384;42.628;23.380;2022-11-20T00:01:26;7.23;;;5.30;;
6693;SDS011;3384;42.628;23.380;2022-11-20T00:03:55;7.90;;;6.37;;
6693;SDS011;3384;42.628;23.380;2022-11-20T00:06:23;8.70;;;7.03;;
6693;SDS011;3384;42.628;23.380;2022-11-20T00:08:53;8.20;;;6.33;;
6693;SDS011;3384;42.628;23.380;2022-11-20T00:11:21;10.77;;;7.17;;
6693;SDS011;3384;42.628;23.380;2022-11-20T00:13:49;5.93;;;5.43;;
6693;SDS011;3384;42.628;23.380;2022-11-20T00:16:18;7.23;;;6.47;;
6693;SDS011;3384;42.628;23.380;2022-11-20T00:18:46;5.43;;;4.90;;
6693;SDS011;3384;42.628;23.380;2022-11-20T00:21:14;6.10;;;5.60;;
6693;SDS011;3384;42.628;23.380;2022-11-20T00:24:01;5.03;;;4.43;;
6693;SDS011;3384;42.628;23.380;2022-11-20T00:26:28;3.77;;;2.90;;
6693;SDS011;3384;42.628;23.380;2022-11-20T00:28:58;1.80;;;1.70;;
6693;SDS011;3384;42.628;23.380;2022-11-20T00:31:27;2.50;;;2.30;;
6693;SDS011;3384;42.628;23.380;2022-11-20T00:33:54;6.00;;;2.87;;
6693;SDS011;3384;42.628;23.380;2022-11-20T00:36:23;4.80;;;2.67;;
6693;SDS011;3384;42.628;23.380;2022-11-20T00:38:51;3.77;;;3.17;;
6693;SDS011;3384;42.628;23.380;2022-11-20T00:41:20;4.93;;;3.57;;
6693;SDS011;3384;42.628;23.380;2022-11-20T00:43:47;3.67;;;2.70;;
6693;SDS011;3384;42.628;23.380;2022-11-20T00:46:14;3.40;;;3.10;;
6693;SDS011;3384;42.628;23.380;2022-11-20T00:48:42;2.83;;;2.63;;
6693;SDS011;3384;42.628;23.380;2022-11-20T00:51:10;3.00;;;2.80;;
6693;SDS011;3384;42.628;23.380;2022-11-20T00:53:39;2.83;;;2.67;;
6693;SDS011;3384;42.628;23.380;2022-11-20T00:56:07;2.53;;;1.70;;
6693;SDS011;3384;42.628;23.380;2022-11-20T00:58:41;10.43;;;2.87;;
6693;SDS011;3384;42.628;23.380;2022-11-20T01:01:09;3.53;;;1.93;;
6693;SDS011;3384;42.628;23.380;2022-11-20T01:03:38;3.63;;;1.87;;
6693;SDS011;3384;42.628;23.380;2022-11-20T01:06:07;2.77;;;1.90;;
6693;SDS011;3384;42.628;23.380;2022-11-20T01:08:36;4.10;;;2.43;;
6693;SDS011;3384;42.628;23.380;2022-11-20T01:11:09;2.33;;;1.40;;
6693;SDS011;3384;42.628;23.380;2022-11-20T01:13:38;1.63;;;1.53;;
6693;SDS011;3384;42.628;23.380;2022-11-20T01:16:08;3.27;;;2.03;;
6693;SDS011;3384;42.628;23.380;2022-11-20T01:18:38;1.73;;;1.63;;
6693;SDS011;3384;42.628;23.380;2022-11-20T01:21:10;5.80;;;2.50;;
6693;SDS011;3384;42.628;23.380;2022-11-20T01:23:39;2.60;;;2.50;;
6693;SDS011;3384;42.628;23.380;2022-11-20T01:26:07;4.00;;;2.37;;
6693;SDS011;3384;42.628;23.380;2022-11-20T01:28:36;2.70;;;2.50;;
6693;SDS011;3384;42.628;23.380;2022-11-20T01:31:11;4.83;;;2.00;;
6693;SDS011;3384;42.628;23.380;2022-11-20T01:33:42;2.93;;;2.73;;
6693;SDS011;3384;42.628;23.380;2022-11-20T01:36:10;8.20;;;2.97;;
6693;SDS011;3384;42.628;23.380;2022-11-20T01:38:37;2.70;;;2.53;;
6693;SDS011;3384;42.628;23.380;2022-11-20T01:41:04;2.27;;;2.17;;
6693;SDS011;3384;42.628;23.380;2022-11-20T01:43:32;6.10;;;2.63;;
6693;SDS011;3384;42.628;23.380;2022-11-20T01:46:00;3.40;;;3.20;;
6693;SDS011;3384;42.628;23.380;2022-11-20T01:48:33;2.43;;;2.33;;
6693;SDS011;3384;42.628;23.380;2022-11-20T01:51:13;2.10;;;2.00;;
6693;SDS011;3384;42.628;23.380;2022-11-20T01:53:49;3.20;;;3.10;;
6693;SDS011;3384;42.628;23.380;2022-11-20T01:56:21;3.30;;;3.10;;
6693;SDS011;3384;42.628;23.380;2022-11-20T01:58:49;3.33;;;3.03;;
6693;SDS011;3384;42.628;23.380;2022-11-20T02:01:23;2.57;;;2.30;;
6693;SDS011;3384;42.628;23.380;2022-11-20T02:03:51;2.83;;;2.53;;
6693;SDS011;3384;42.628;23.380;2022-11-20T02:06:23;2.70;;;2.50;;
6693;SDS011;3384;42.628;23.380;2022-11-20T02:08:52;2.63;;;2.43;;
6693;SDS011;3384;42.628;23.380;2022-11-20T02:11:22;3.67;;;3.30;;
6693;SDS011;3384;42.628;23.380;2022-11-20T02:13:49;4.30;;;2.80;;
6693;SDS011;3384;42.628;23.380;2022-11-20T02:16:16;2.80;;;2.70;;
6693;SDS011;3384;42.628;23.380;2022-11-20T02:18:47;2.97;;;1.90;;
6693;SDS011;3384;42.628;23.380;2022-11-20T02:21:27;1.30;;;1.20;;
6693;SDS011;3384;42.628;23.380;2022-11-20T02:24:04;0.83;;;0.83;;
6693;SDS011;3384;42.628;23.380;2022-11-20T02:26:44;4.30;;;0.97;;
6693;SDS011;3384;42.628;23.380;2022-11-20T02:29:16;5.90;;;0.90;;
6693;SDS011;3384;42.628;23.380;2022-11-20T02:31:48;2.03;;;0.97;;
6693;SDS011;3384;42.628;23.380;2022-11-20T02:34:15;1.43;;;1.00;;
6693;SDS011;3384;42.628;23.380;2022-11-20T02:36:42;2.83;;;0.70;;
6693;SDS011;3384;42.628;23.380;2022-11-20T02:39:11;3.03;;;0.87;;
6693;SDS011;3384;42.628;23.380;2022-11-20T02:41:42;4.30;;;1.20;;
6693;SDS011;3384;42.628;23.380;2022-11-20T02:44:11;1.27;;;0.90;;
6693;SDS011;3384;42.628;23.380;2022-11-20T02:46:38;1.23;;;1.13;;
6693;SDS011;3384;42.628;23.380;2022-11-20T02:49:05;2.40;;;0.80;;
6693;SDS011;3384;42.628;23.380;2022-11-20T02:51:32;9.43;;;1.10;;
6693;SDS011;3384;42.628;23.380;2022-11-20T02:53:59;1.37;;;0.60;;
6693;SDS011;3384;42.628;23.380;2022-11-20T02:56:27;3.17;;;0.80;;
6693;SDS011;3384;42.628;23.380;2022-11-20T02:58:54;4.60;;;0.60;;
6693;SDS011;3384;42.628;23.380;2022-11-20T03:01:21;2.03;;;0.73;;
6693;SDS011;3384;42.628;23.380;2022-11-20T03:03:48;0.93;;;0.50;;
6693;SDS011;3384;42.628;23.380;2022-11-20T03:06:21;0.90;;;0.60;;
6693;SDS011;3384;42.628;23.380;2022-11-20T03:08:48;1.87;;;0.93;;
6693;SDS011;3384;42.628;23.380;2022-11-20T03:11:15;3.50;;;0.60;;
6693;SDS011;3384;42.628;23.380;2022-11-20T03:13:48;1.13;;;0.70;;
6693;SDS011;3384;42.628;23.380;2022-11-20T03:16:18;1.37;;;0.73;;
6693;SDS011;3384;42.628;23.380;2022-11-20T03:18:46;2.83;;;0.57;;
6693;SDS011;3384;42.628;23.380;2022-11-20T03:21:13;5.77;;;0.77;;
6693;SDS011;3384;42.628;23.380;2022-11-20T03:23:40;1.10;;;0.60;;
6693;SDS011;3384;42.628;23.380;2022-11-20T03:26:08;2.23;;;1.10;;
6693;SDS011;3384;42.628;23.380;2022-11-20T03:28:36;2.83;;;1.00;;
6693;SDS011;3384;42.628;23.380;2022-11-20T03:31:09;2.87;;;0.80;;
6693;SDS011;3384;42.628;23.380;2022-11-20T03:33:38;1.93;;;0.80;;
6693;SDS011;3384;42.628;23.380;2022-11-20T03:36:06;2.20;;;0.80;;
6693;SDS011;3384;42.628;23.380;2022-11-20T03:38:35;3.73;;;1.33;;
6693;SDS011;3384;42.628;23.380;2022-11-20T03:41:04;1.23;;;0.87;;
6693;SDS011;3384;42.628;23.380;2022-11-20T03:43:33;1.03;;;0.50;;
6693;SDS011;3384;42.628;23.380;2022-11-20T03:46:00;0.83;;;0.83;;
6693;SDS011;3384;42.628;23.380;2022-11-20T03:48:28;1.10;;;0.80;;
6693;SDS011;3384;42.628;23.380;2022-11-20T03:51:06;0.87;;;0.87;;
6693;SDS011;3384;42.628;23.380;2022-11-20T03:53:33;3.57;;;0.70;;
6693;SDS011;3384;42.628;23.380;2022-11-20T03:56:00;4.63;;;0.60;;
6693;SDS011;3384;42.628;23.380;2022-11-20T03:58:27;1.20;;;0.80;;
6693;SDS011;3384;42.628;23.380;2022-11-20T04:00:54;2.20;;;0.57;;
6693;SDS011;3384;42.628;23.380;2022-11-20T04:03:21;0.50;;;0.40;;
6693;SDS011;3384;42.628;23.380;2022-11-20T04:05:49;1.20;;;0.83;;
6693;SDS011;3384;42.628;23.380;2022-11-20T04:08:16;2.03;;;0.60;;
6693;SDS011;3384;42.628;23.380;2022-11-20T04:10:42;1.77;;;1.00;;
6693;SDS011;3384;42.628;23.380;2022-11-20T04:13:09;2.07;;;0.60;;
6693;SDS011;3384;42.628;23.380;2022-11-20T04:15:36;4.03;;;1.10;;
6693;SDS011;3384;42.628;23.380;2022-11-20T04:18:03;1.20;;;0.93;;
6693;SDS011;3384;42.628;23.380;2022-11-20T04:20:30;4.00;;;0.80;;
6693;SDS011;3384;42.628;23.380;2022-11-20T04:22:58;0.70;;;0.70;;
6693;SDS011;3384;42.628;23.380;2022-11-20T04:25:25;1.80;;;1.43;;
6693;SDS011;3384;42.628;23.380;2022-11-20T04:27:51;0.50;;;0.50;;
6693;SDS011;3384;42.628;23.380;2022-11-20T04:30:18;1.47;;;0.60;;
6693;SDS011;3384;42.628;23.380;2022-11-20T04:32:45;1.37;;;0.60;;
6693;SDS011;3384;42.628;23.380;2022-11-20T04:35:12;0.70;;;0.70;;
6693;SDS011;3384;42.628;23.380;2022-11-20T04:37:39;0.50;;;0.50;;
6693;SDS011;3384;42.628;23.380;2022-11-20T04:40:08;1.67;;;0.60;;
6693;SDS011;3384;42.628;23.380;2022-11-20T04:42:35;6.63;;;0.80;;
6693;SDS011;3384;42.628;23.380;2022-11-20T04:45:02;0.70;;;0.63;;
6693;SDS011;3384;42.628;23.380;2022-11-20T04:47:29;0.60;;;0.50;;
6693;SDS011;3384;42.628;23.380;2022-11-20T04:49:56;6.13;;;1.60;;
6693;SDS011;3384;42.628;23.380;2022-11-20T04:52:22;1.00;;;0.70;;
6693;SDS011;3384;42.628;23.380;2022-11-20T04:54:49;1.13;;;0.80;;
6693;SDS011;3384;42.628;23.380;2022-11-20T04:57:19;6.50;;;1.20;;
6693;SDS011;3384;42.628;23.380;2022-11-20T04:59:46;0.80;;;0.80;;
6693;SDS011;3384;42.628;23.380;2022-11-20T05:02:13;2.00;;;0.60;;
6693;SDS011;3384;42.628;23.380;2022-11-20T05:04:40;0.77;;;0.73;;
6693;SDS011;3384;42.628;23.380;2022-11-20T05:07:06;0.90;;;0.90;;
6693;SDS011;3384;42.628;23.380;2022-11-20T05:09:33;2.67;;;1.00;;
6693;SDS011;3384;42.628;23.380;2022-11-20T05:12:00;3.80;;;0.70;;
6693;SDS011;3384;42.628;23.380;2022-11-20T05:14:28;1.50;;;1.40;;
6693;SDS011;3384;42.628;23.380;2022-11-20T05:16:55;1.53;;;0.73;;
6693;SDS011;3384;42.628;23.380;2022-11-20T05:19:22;1.27;;;0.60;;
6693;SDS011;3384;42.628;23.380;2022-11-20T05:21:49;1.23;;;1.13;;
6693;SDS011;3384;42.628;23.380;2022-11-20T05:24:15;5.20;;;0.90;;
6693;SDS011;3384;42.628;23.380;2022-11-20T05:26:42;2.00;;;0.70;;
6693;SDS011;3384;42.628;23.380;2022-11-20T05:29:10;1.10;;;0.93;;
6693;SDS011;3384;42.628;23.380;2022-11-20T05:31:39;1.13;;;0.60;;
6693;SDS011;3384;42.628;23.380;2022-11-20T05:34:07;2.23;;;1.30;;
6693;SDS011;3384;42.628;23.380;2022-11-20T05:36:34;2.70;;;0.77;;
6693;SDS011;3384;42.628;23.380;2022-11-20T05:39:01;3.43;;;0.90;;
6693;SDS011;3384;42.628;23.380;2022-11-20T05:41:28;1.80;;;0.57;;
6693;SDS011;3384;42.628;23.380;2022-11-20T05:43:55;2.00;;;0.57;;
6693;SDS011;3384;42.628;23.380;2022-11-20T05:46:24;4.93;;;1.47;;
6693;SDS011;3384;42.628;23.380;2022-11-20T05:48:52;2.10;;;1.40;;
6693;SDS011;3384;42.628;23.380;2022-11-20T05:51:19;2.90;;;1.50;;
6693;SDS011;3384;42.628;23.380;2022-11-20T05:53:46;1.00;;;1.00;;
6693;SDS011;3384;42.628;23.380;2022-11-20T05:56:14;1.53;;;1.07;;
6693;SDS011;3384;42.628;23.380;2022-11-20T05:58:42;1.07;;;0.97;;
6693;SDS011;3384;42.628;23.380;2022-11-20T06:01:10;2.83;;;0.70;;
6693;SDS011;3384;42.628;23.380;2022-11-20T06:03:39;0.87;;;0.80;;
6693;SDS011;3384;42.628;23.380;2022-11-20T06:06:08;3.07;;;0.70;;
6693;SDS011;3384;42.628;23.380;2022-11-20T06:08:35;1.67;;;1.00;;
6693;SDS011;3384;42.628;23.380;2022-11-20T06:11:03;1.17;;;0.70;;
6693;SDS011;3384;42.628;23.380;2022-11-20T06:13:30;2.93;;;0.90;;
6693;SDS011;3384;42.628;23.380;2022-11-20T06:15:57;4.30;;;0.87;;
6693;SDS011;3384;42.628;23.380;2022-11-20T06:18:25;0.70;;;0.60;;
6693;SDS011;3384;42.628;23.380;2022-11-20T06:20:58;4.20;;;1.27;;
6693;SDS011;3384;42.628;23.380;2022-11-20T06:23:28;2.30;;;0.80;;
6693;SDS011;3384;42.628;23.380;2022-11-20T06:25:56;1.53;;;1.33;;
6693;SDS011;3384;42.628;23.380;2022-11-20T06:28:22;0.60;;;0.60;;
6693;SDS011;3384;42.628;23.380;2022-11-20T06:30:49;5.50;;;1.50;;
6693;SDS011;3384;42.628;23.380;2022-11-20T06:33:16;4.97;;;1.07;;
6693;SDS011;3384;42.628;23.380;2022-11-20T06:35:43;1.77;;;1.30;;
6693;SDS011;3384;42.628;23.380;2022-11-20T06:38:10;2.43;;;1.00;;
6693;SDS011;3384;42.628;23.380;2022-11-20T06:40:40;1.20;;;1.20;;
6693;SDS011;3384;42.628;23.380;2022-11-20T06:43:07;8.93;;;2.37;;
6693;SDS011;3384;42.628;23.380;2022-11-20T06:45:34;2.63;;;1.33;;
6693;SDS011;3384;42.628;23.380;2022-11-20T06:48:01;2.30;;;1.90;;
6693;SDS011;3384;42.628;23.380;2022-11-20T06:50:28;2.00;;;1.90;;
6693;SDS011;3384;42.628;23.380;2022-11-20T06:52:55;4.73;;;1.37;;
6693;SDS011;3384;42.628;23.380;2022-11-20T06:55:21;2.50;;;0.83;;
6693;SDS011;3384;42.628;23.380;2022-11-20T06:57:52;6.00;;;1.37;;
6693;SDS011;3384;42.628;23.380;2022-11-20T07:00:33;2.20;;;1.17;;
6693;SDS011;3384;42.628;23.380;2022-11-20T07:03:02;1.00;;;1.00;;
6693;SDS011;3384;42.628;23.380;2022-11-20T07:05:29;5.20;;;1.03;;
6693;SDS011;3384;42.628;23.380;2022-11-20T07:07:57;4.80;;;2.03;;
6693;SDS011;3384;42.628;23.380;2022-11-20T07:10:24;3.23;;;1.30;;
6693;SDS011;3384;42.628;23.380;2022-11-20T07:12:53;4.10;;;1.47;;
6693;SDS011;3384;42.628;23.380;2022-11-20T07:15:21;1.63;;;1.53;;
6693;SDS011;3384;42.628;23.380;2022-11-20T07:17:50;2.33;;;1.10;;
6693;SDS011;3384;42.628;23.380;2022-11-20T07:20:17;7.37;;;2.97;;
6693;SDS011;3384;42.628;23.380;2022-11-20T07:22:44;3.60;;;1.30;;
6693;SDS011;3384;42.628;23.380;2022-11-20T07:25:11;2.27;;;1.40;;
6693;SDS011;3384;42.628;23.380;2022-11-20T07:27:39;9.33;;;3.67;;
6693;SDS011;3384;42.628;23.380;2022-11-20T07:30:08;2.57;;;2.23;;
6693;SDS011;3384;42.628;23.380;2022-11-20T07:32:35;5.00;;;3.17;;
6693;SDS011;3384;42.628;23.380;2022-11-20T07:35:03;12.20;;;5.03;;
6693;SDS011;3384;42.628;23.380;2022-11-20T07:37:30;6.40;;;4.37;;
6693;SDS011;3384;42.628;23.380;2022-11-20T07:40:00;3.67;;;2.30;;
6693;SDS011;3384;42.628;23.380;2022-11-20T07:42:27;7.63;;;5.10;;
6693;SDS011;3384;42.628;23.380;2022-11-20T07:44:54;2.90;;;2.80;;
6693;SDS011;3384;42.628;23.380;2022-11-20T07:47:22;3.90;;;1.00;;
6693;SDS011;3384;42.628;23.380;2022-11-20T07:49:50;2.70;;;1.00;;
6693;SDS011;3384;42.628;23.380;2022-11-20T07:52:17;3.63;;;2.10;;
6693;SDS011;3384;42.628;23.380;2022-11-20T07:54:43;3.13;;;1.70;;
6693;SDS011;3384;42.628;23.380;2022-11-20T07:57:10;2.30;;;1.50;;
6693;SDS011;3384;42.628;23.380;2022-11-20T07:59:47;12.93;;;1.00;;
6693;SDS011;3384;42.628;23.380;2022-11-20T08:02:13;5.97;;;0.87;;
6693;SDS011;3384;42.628;23.380;2022-11-20T08:04:42;3.53;;;1.00;;
6693;SDS011;3384;42.628;23.380;2022-11-20T08:07:08;2.07;;;1.00;;
6693;SDS011;3384;42.628;23.380;2022-11-20T08:09:35;1.57;;;1.07;;
6693;SDS011;3384;42.628;23.380;2022-11-20T08:12:02;0.83;;;0.83;;
6693;SDS011;3384;42.628;23.380;2022-11-20T08:14:46;6.20;;;1.50;;
6693;SDS011;3384;42.628;23.380;2022-11-20T08:17:24;6.40;;;1.80;;
6693;SDS011;3384;42.628;23.380;2022-11-20T08:19:52;2.30;;;2.20;;
6693;SDS011;3384;42.628;23.380;2022-11-20T08:22:19;1.50;;;1.37;;
6693;SDS011;3384;42.628;23.380;2022-11-20T08:24:46;3.60;;;1.73;;
6693;SDS011;3384;42.628;23.380;2022-11-20T08:27:14;7.87;;;6.13;;
6693;SDS011;3384;42.628;23.380;2022-11-20T08:29:45;1.57;;;1.13;;
6693;SDS011;3384;42.628;23.380;2022-11-20T08:32:12;21.23;;;3.23;;
6693;SDS011;3384;42.628;23.380;2022-11-20T08:34:39;3.47;;;1.40;;
6693;SDS011;3384;42.628;23.380;2022-11-20T08:37:07;2.33;;;2.13;;
6693;SDS011;3384;42.628;23.380;2022-11-20T08:39:36;1.80;;;1.70;;
6693;SDS011;3384;42.628;23.380;2022-11-20T08:42:06;8.30;;;2.30;;
6693;SDS011;3384;42.628;23.380;2022-11-20T08:44:33;1.30;;;1.13;;
6693;SDS011;3384;42.628;23.380;2022-11-20T08:47:00;0.80;;;0.80;;
6693;SDS011;3384;42.628;23.380;2022-11-20T08:49:27;12.87;;;2.67;;
6693;SDS011;3384;42.628;23.380;2022-11-20T08:51:54;0.90;;;0.70;;
6693;SDS011;3384;42.628;23.380;2022-11-20T08:54:22;2.87;;;1.53;;
6693;SDS011;3384;42.628;23.380;2022-11-20T08:56:50;7.43;;;1.73;;
6693;SDS011;3384;42.628;23.380;2022-11-20T08:59:17;5.80;;;1.07;;
6693;SDS011;3384;42.628;23.380;2022-11-20T09:01:44;8.73;;;1.27;;
6693;SDS011;3384;42.628;23.380;2022-11-20T09:04:13;1.73;;;0.83;;
6693;SDS011;3384;42.628;23.380;2022-11-20T09:06:40;5.60;;;2.20;;
6693;SDS011;3384;42.628;23.380;2022-11-20T09:09:07;7.10;;;1.77;;
6693;SDS011;3384;42.628;23.380;2022-11-20T09:11:38;3.83;;;3.00;;
6693;SDS011;3384;42.628;23.380;2022-11-20T09:14:05;5.50;;;1.73;;
6693;SDS011;3384;42.628;23.380;2022-11-20T09:16:31;2.00;;;1.80;;
6693;SDS011;3384;42.628;23.380;2022-11-20T09:18:58;4.00;;;1.17;;
6693;SDS011;3384;42.628;23.380;2022-11-20T09:21:25;2.90;;;2.07;;
6693;SDS011;3384;42.628;23.380;2022-11-20T09:23:52;1.77;;;1.67;;
6693;SDS011;3384;42.628;23.380;2022-11-20T09:26:19;1.43;;;1.23;;
6693;SDS011;3384;42.628;23.380;2022-11-20T09:28:47;3.53;;;1.57;;
6693;SDS011;3384;42.628;23.380;2022-11-20T09:31:17;5.87;;;2.00;;
6693;SDS011;3384;42.628;23.380;2022-11-20T09:33:53;2.23;;;2.13;;
6693;SDS011;3384;42.628;23.380;2022-11-20T09:36:21;15.87;;;2.90;;
6693;SDS011;3384;42.628;23.380;2022-11-20T09:38:48;4.97;;;2.43;;
6693;SDS011;3384;42.628;23.380;2022-11-20T09:41:24;3.57;;;2.47;;
6693;SDS011;3384;42.628;23.380;2022-11-20T09:44:16;4.10;;;1.83;;
6693;SDS011;3384;42.628;23.380;2022-11-20T09:46:54;4.03;;;2.20;;
6693;SDS011;3384;42.628;23.380;2022-11-20T09:49:32;2.37;;;2.00;;
6693;SDS011;3384;42.628;23.380;2022-11-20T09:52:14;2.33;;;2.13;;
6693;SDS011;3384;42.628;23.380;2022-11-20T09:55:02;3.37;;;2.57;;
6693;SDS011;3384;42.628;23.380;2022-11-20T09:57:33;4.73;;;2.10;;
6693;SDS011;3384;42.628;23.380;2022-11-20T10:00:04;2.20;;;2.00;;
6693;SDS011;3384;42.628;23.380;2022-11-20T10:02:37;2.13;;;2.00;;
6693;SDS011;3384;42.628;23.380;2022-11-20T10:05:10;5.53;;;3.30;;
6693;SDS011;3384;42.628;23.380;2022-11-20T10:07:42;7.20;;;4.33;;
6693;SDS011;3384;42.628;23.380;2022-11-20T10:11:00;3.13;;;2.97;;
6693;SDS011;3384;42.628;23.380;2022-11-20T10:13:33;5.10;;;1.90;;
6693;SDS011;3384;42.628;23.380;2022-11-20T10:16:11;4.30;;;2.10;;
6693;SDS011;3384;42.628;23.380;2022-11-20T10:18:56;2.80;;;1.63;;
6693;SDS011;3384;42.628;23.380;2022-11-20T10:21:42;2.33;;;2.20;;
6693;SDS011;3384;42.628;23.380;2022-11-20T10:24:27;3.13;;;1.60;;
6693;SDS011;3384;42.628;23.380;2022-11-20T10:27:07;3.47;;;2.63;;
6693;SDS011;3384;42.628;23.380;2022-11-20T10:29:59;8.40;;;1.70;;
6693;SDS011;3384;42.628;23.380;2022-11-20T10:32:36;3.20;;;2.87;;
6693;SDS011;3384;42.628;23.380;2022-11-20T10:35:07;5.50;;;2.33;;
6693;SDS011;3384;42.628;23.380;2022-11-20T10:37:45;5.23;;;2.77;;
6693;SDS011;3384;42.628;23.380;2022-11-20T10:40:18;7.73;;;3.47;;
6693;SDS011;3384;42.628;23.380;2022-11-20T10:42:52;6.67;;;2.13;;
6693;SDS011;3384;42.628;23.380;2022-11-20T10:45:31;8.90;;;2.20;;
6693;SDS011;3384;42.628;23.380;2022-11-20T10:48:10;6.70;;;2.50;;
6693;SDS011;3384;42.628;23.380;2022-11-20T10:50:43;6.73;;;2.60;;
6693;SDS011;3384;42.628;23.380;2022-11-20T10:53:25;3.23;;;2.47;;
6693;SDS011;3384;42.628;23.380;2022-11-20T10:56:11;15.07;;;3.27;;
6693;SDS011;3384;42.628;23.380;2022-11-20T10:58:46;8.73;;;2.33;;
6693;SDS011;3384;42.628;23.380;2022-11-20T11:01:26;6.80;;;2.57;;
6693;SDS011;3384;42.628;23.380;2022-11-20T11:03:55;4.27;;;2.60;;
6693;SDS011;3384;42.628;23.380;2022-11-20T11:06:28;5.80;;;3.20;;
6693;SDS011;3384;42.628;23.380;2022-11-20T11:09:01;11.17;;;2.63;;
6693;SDS011;3384;42.628;23.380;2022-11-20T11:11:41;10.83;;;2.70;;
6693;SDS011;3384;42.628;23.380;2022-11-20T11:14:09;12.53;;;3.17;;
6693;SDS011;3384;42.628;23.380;2022-11-20T11:16:48;7.77;;;3.40;;
6693;SDS011;3384;42.628;23.380;2022-11-20T11:19:16;3.50;;;2.73;;
6693;SDS011;3384;42.628;23.380;2022-11-20T11:21:45;3.40;;;3.10;;
6693;SDS011;3384;42.628;23.380;2022-11-20T11:24:15;8.23;;;4.93;;
6693;SDS011;3384;42.628;23.380;2022-11-20T11:26:51;9.93;;;4.03;;
6693;SDS011;3384;42.628;23.380;2022-11-20T11:29:20;5.30;;;4.20;;
6693;SDS011;3384;42.628;23.380;2022-11-20T11:31:48;3.23;;;2.97;;
6693;SDS011;3384;42.628;23.380;2022-11-20T11:34:15;3.23;;;2.90;;
6693;SDS011;3384;42.628;23.380;2022-11-20T11:36:56;6.73;;;2.40;;
6693;SDS011;3384;42.628;23.380;2022-11-20T11:39:24;5.57;;;1.60;;
6693;SDS011;3384;42.628;23.380;2022-11-20T11:41:53;1.60;;;1.60;;
6693;SDS011;3384;42.628;23.380;2022-11-20T11:44:20;2.90;;;1.10;;
6693;SDS011;3384;42.628;23.380;2022-11-20T11:47:15;0.87;;;0.40;;
6693;SDS011;3384;42.628;23.380;2022-11-20T11:49:50;0.60;;;0.40;;
6693;SDS011;3384;42.628;23.380;2022-11-20T11:52:31;1.03;;;0.57;;
6693;SDS011;3384;42.628;23.380;2022-11-20T11:55:07;3.10;;;1.20;;
6693;SDS011;3384;42.628;23.380;2022-11-20T11:57:44;1.50;;;0.70;;
6693;SDS011;3384;42.628;23.380;2022-11-20T12:00:16;6.73;;;1.43;;
6693;SDS011;3384;42.628;23.380;2022-11-20T12:02:52;6.70;;;1.40;;
6693;SDS011;3384;42.628;23.380;2022-11-20T12:05:25;1.80;;;0.87;;
6693;SDS011;3384;42.628;23.380;2022-11-20T12:07:56;4.00;;;0.93;;
6693;SDS011;3384;42.628;23.380;2022-11-20T12:10:33;3.80;;;0.50;;
6693;SDS011;3384;42.628;23.380;2022-11-20T12:13:10;0.83;;;0.63;;
6693;SDS011;3384;42.628;23.380;2022-11-20T12:16:01;4.97;;;1.10;;
6693;SDS011;3384;42.628;23.380;2022-11-20T12:18:31;1.43;;;1.23;;
6693;SDS011;3384;42.628;23.380;2022-11-20T12:21:03;4.50;;;0.67;;
6693;SDS011;3384;42.628;23.380;2022-11-20T12:23:36;1.17;;;0.93;;
6693;SDS011;3384;42.628;23.380;2022-11-20T12:26:22;0.93;;;0.60;;
6693;SDS011;3384;42.628;23.380;2022-11-20T12:29:06;1.90;;;1.60;;
6693;SDS011;3384;42.628;23.380;2022-11-20T12:31:45;0.50;;;0.43;;
6693;SDS011;3384;42.628;23.380;2022-11-20T12:34:27;0.83;;;0.83;;
6693;SDS011;3384;42.628;23.380;2022-11-20T12:37:12;2.50;;;2.40;;
6693;SDS011;3384;42.628;23.380;2022-11-20T12:39:45;1.40;;;1.30;;
6693;SDS011;3384;42.628;23.380;2022-11-20T12:42:23;1.07;;;0.30;;
6693;SDS011;3384;42.628;23.380;2022-11-20T12:45:24;1.03;;;0.50;;
6693;SDS011;3384;42.628;23.380;2022-11-20T12:51:06;1.80;;;1.17;;
6693;SDS011;3384;42.628;23.380;2022-11-20T12:53:50;0.90;;;0.70;;
6693;SDS011;3384;42.628;23.380;2022-11-20T12:56:35;0.67;;;0.67;;
6693;SDS011;3384;42.628;23.380;2022-11-20T12:59:18;2.10;;;1.40;;
6693;SDS011;3384;42.628;23.380;2022-11-20T13:01:55;2.10;;;1.20;;
6693;SDS011;3384;42.628;23.380;2022-11-20T13:04:36;2.13;;;1.60;;
6693;SDS011;3384;42.628;23.380;2022-11-20T13:07:15;1.30;;;1.20;;
6693;SDS011;3384;42.628;23.380;2022-11-20T13:09:44;2.50;;;2.30;;
6693;SDS011;3384;42.628;23.380;2022-11-20T13:12:14;8.70;;;3.33;;
6693;SDS011;3384;42.628;23.380;2022-11-20T13:14:50;2.57;;;2.33;;
6693;SDS011;3384;42.628;23.380;2022-11-20T13:17:24;7.13;;;2.03;;
6693;SDS011;3384;42.628;23.380;2022-11-20T13:20:00;2.83;;;1.87;;
6693;SDS011;3384;42.628;23.380;2022-11-20T13:22:42;1.27;;;1.27;;
6693;SDS011;3384;42.628;23.380;2022-11-20T13:25:21;2.00;;;1.03;;
6693;SDS011;3384;42.628;23.380;2022-11-20T13:27:49;3.60;;;1.10;;
6693;SDS011;3384;42.628;23.380;2022-11-20T13:30:17;2.07;;;0.93;;
6693;SDS011;3384;42.628;23.380;2022-11-20T13:32:49;2.30;;;1.50;;
6693;SDS011;3384;42.628;23.380;2022-11-20T13:35:25;1.07;;;0.80;;
6693;SDS011;3384;42.628;23.380;2022-11-20T13:38:02;3.87;;;1.07;;
6693;SDS011;3384;42.628;23.380;2022-11-20T13:40:32;2.07;;;1.90;;
6693;SDS011;3384;42.628;23.380;2022-11-20T13:43:14;2.77;;;1.90;;
6693;SDS011;3384;42.628;23.380;2022-11-20T13:45:54;2.40;;;1.93;;
6693;SDS011;3384;42.628;23.380;2022-11-20T13:48:22;2.77;;;2.50;;
6693;SDS011;3384;42.628;23.380;2022-11-20T13:50:55;5.80;;;1.40;;
6693;SDS011;3384;42.628;23.380;2022-11-20T13:53:36;5.33;;;1.73;;
6693;SDS011;3384;42.628;23.380;2022-11-20T13:56:16;3.00;;;1.83;;
6693;SDS011;3384;42.628;23.380;2022-11-20T13:58:52;2.10;;;2.00;;
6693;SDS011;3384;42.628;23.380;2022-11-20T14:01:26;3.57;;;1.50;;
6693;SDS011;3384;42.628;23.380;2022-11-20T14:03:56;2.57;;;1.33;;
6693;SDS011;3384;42.628;23.380;2022-11-20T14:06:26;5.73;;;4.10;;
6693;SDS011;3384;42.628;23.380;2022-11-20T14:08:57;4.07;;;3.00;;
6693;SDS011;3384;42.628;23.380;2022-11-20T14:11:25;3.33;;;1.70;;
6693;SDS011;3384;42.628;23.380;2022-11-20T14:13:57;2.77;;;2.57;;
6693;SDS011;3384;42.628;23.380;2022-11-20T14:16:26;4.13;;;1.87;;
6693;SDS011;3384;42.628;23.380;2022-11-20T14:18:57;2.80;;;2.00;;
6693;SDS011;3384;42.628;23.380;2022-11-20T14:21:49;3.87;;;2.00;;
6693;SDS011;3384;42.628;23.380;2022-11-20T14:24:21;4.40;;;2.93;;
6693;SDS011;3384;42.628;23.380;2022-11-20T14:26:49;3.57;;;2.70;;
6693;SDS011;3384;42.628;23.380;2022-11-20T14:29:17;3.13;;;2.00;;
6693;SDS011;3384;42.628;23.380;2022-11-20T14:31:46;3.57;;;3.20;;
6693;SDS011;3384;42.628;23.380;2022-11-20T14:34:17;3.63;;;2.30;;
6693;SDS011;3384;42.628;23.380;2022-11-20T14:36:46;2.60;;;2.40;;
6693;SDS011;3384;42.628;23.380;2022-11-20T14:39:20;3.67;;;3.37;;
6693;SDS011;3384;42.628;23.380;2022-11-20T14:41:58;4.10;;;1.60;;
6693;SDS011;3384;42.628;23.380;2022-11-20T14:44:38;3.57;;;2.40;;
6693;SDS011;3384;42.628;23.380;2022-11-20T14:47:06;4.70;;;2.40;;
6693;SDS011;3384;42.628;23.380;2022-11-20T14:49:39;3.27;;;2.37;;
6693;SDS011;3384;42.628;23.380;2022-11-20T14:52:11;2.43;;;2.23;;
6693;SDS011;3384;42.628;23.380;2022-11-20T14:54:48;7.90;;;2.90;;
6693;SDS011;3384;42.628;23.380;2022-11-20T14:57:20;8.43;;;3.30;;
6693;SDS011;3384;42.628;23.380;2022-11-20T14:59:50;4.73;;;3.17;;
6693;SDS011;3384;42.628;23.380;2022-11-20T15:02:17;8.33;;;2.90;;
6693;SDS011;3384;42.628;23.380;2022-11-20T15:04:45;5.77;;;3.83;;
6693;SDS011;3384;42.628;23.380;2022-11-20T15:07:22;5.80;;;3.33;;
6693;SDS011;3384;42.628;23.380;2022-11-20T15:10:00;2.43;;;2.23;;
6693;SDS011;3384;42.628;23.380;2022-11-20T15:12:28;4.00;;;3.70;;
6693;SDS011;3384;42.628;23.380;2022-11-20T15:14:56;6.70;;;3.70;;
6693;SDS011;3384;42.628;23.380;2022-11-20T15:17:23;4.47;;;3.00;;
6693;SDS011;3384;42.628;23.380;2022-11-20T15:19:50;4.40;;;4.00;;
6693;SDS011;3384;42.628;23.380;2022-11-20T15:22:18;13.00;;;2.90;;
6693;SDS011;3384;42.628;23.380;2022-11-20T15:24:47;6.53;;;2.53;;
6693;SDS011;3384;42.628;23.380;2022-11-20T15:27:15;2.20;;;2.10;;